Terminal Aerodrome Forecast
Issued by NWS Memphis, TN

Home | Current Version | Previous Version | Text Only | Print | Product List | Glossary On
Versions: 1 2 3 4 5 6 7 8 9 10 11 12 13 14 15 16 17
704
FTUS44 KMEG 060524
TAFJBR
TAF
KJBR 060524Z 0606/0706 02006KT 4SM -RA BR OVC005
      TEMPO 0607/0611 2SM +RA
     FM061100 32008KT P6SM OVC007
      TEMPO 0611/0613 5SM -SHRA BR
     FM061500 32010KT P6SM OVC015
     FM062000 32010KT P6SM BKN025
     FM070000 32005KT P6SM SCT030=

USA.gov is the U.S. government's official web portal to all federal, state and local government web resources and services.